createdAt,value
2023-02-16T00:01:49.464Z,83.88
2023-02-16T00:06:42.693Z,84.25
2023-02-16T00:11:54.775Z,84.86
2023-02-16T00:16:49.306Z,85.36
2023-02-16T00:21:42.442Z,85.51
2023-02-16T00:26:36.389Z,85.64
2023-02-16T00:31:33.010Z,85.86
2023-02-16T00:36:27.782Z,85.68
2023-02-16T00:41:40.766Z,86.21
2023-02-16T00:46:34.547Z,86.20
2023-02-16T00:51:29.824Z,85.76
2023-02-16T00:56:23.706Z,85.19
2023-02-16T01:01:19.949Z,85.53
2023-02-16T01:06:31.387Z,86.03
2023-02-16T01:11:26.827Z,85.83
2023-02-16T01:16:23.207Z,85.48
2023-02-16T01:21:16.715Z,85.61
2023-02-16T01:26:16.178Z,85.51
2023-02-16T01:31:14.757Z,85.67
2023-02-16T01:36:21.089Z,85.29
2023-02-16T01:41:23.675Z,85.77
2023-02-16T01:46:22.680Z,86.23
2023-02-16T01:51:20.781Z,85.98
2023-02-16T01:56:22.713Z,86.39
2023-02-16T02:01:51.846Z,86.53
2023-02-16T02:06:48.258Z,86.33
2023-02-16T02:11:47.288Z,86.25
2023-02-16T02:16:40.739Z,86.63
2023-02-16T02:22:31.132Z,87.21
2023-02-16T02:27:27.398Z,87.19
2023-02-16T02:32:29.262Z,87.47
2023-02-16T02:37:30.257Z,87.94
2023-02-16T02:42:34.144Z,87.96
2023-02-16T02:47:39.634Z,87.89
2023-02-16T02:52:35.937Z,87.46
2023-02-16T02:57:53.398Z,87.88
2023-02-16T03:02:50.709Z,87.41
2023-02-16T03:07:48.556Z,87.28
2023-02-16T03:12:46.232Z,87.35
2023-02-16T03:18:00.289Z,87.21
2023-02-16T03:23:10.782Z,88.12
2023-02-16T03:28:25.941Z,88.94
2023-02-16T03:33:19.964Z,88.06
2023-02-16T03:38:13.372Z,87.48
2023-02-16T03:43:09.563Z,87.71
2023-02-16T03:48:04.164Z,87.12
2023-02-16T03:53:07.173Z,87.14
2023-02-16T03:58:00.989Z,87.81
2023-02-16T04:02:55.787Z,88.10
2023-02-16T04:07:48.897Z,87.35
2023-02-16T04:12:42.024Z,87.13
2023-02-16T04:17:35.197Z,87.04
2023-02-16T04:22:31.179Z,87.46
2023-02-16T04:27:24.565Z,87.38
2023-02-16T04:32:17.940Z,87.45
2023-02-16T04:37:11.106Z,88.50
2023-02-16T04:42:06.085Z,88.48
2023-02-16T04:46:59.464Z,88.37
2023-02-16T04:51:52.773Z,88.70
2023-02-16T04:56:46.373Z,88.43
2023-02-16T05:01:41.259Z,89.02
2023-02-16T05:06:34.630Z,89.11
2023-02-16T05:11:45.345Z,88.61
2023-02-16T05:16:40.227Z,88.85
2023-02-16T05:21:33.585Z,88.91
2023-02-16T05:26:27.073Z,88.39
2023-02-16T05:31:22.360Z,88.88
2023-02-16T05:36:17.302Z,88.96
2023-02-16T05:41:10.780Z,88.93
2023-02-16T05:46:09.008Z,89.17
2023-02-16T05:51:02.744Z,89.10
2023-02-16T05:55:57.771Z,89.13
2023-02-16T06:00:51.175Z,89.04
2023-02-16T06:05:44.643Z,89.51
2023-02-16T06:10:38.191Z,90.06
2023-02-16T06:15:35.902Z,89.73
2023-02-16T06:20:29.278Z,89.72
2023-02-16T06:25:22.609Z,90.12
2023-02-16T06:30:16.234Z,90.06
2023-02-16T06:35:11.111Z,90.23
2023-02-16T06:40:04.755Z,90.05
2023-02-16T06:44:58.284Z,89.64
2023-02-16T06:49:51.602Z,89.79
2023-02-16T06:54:46.786Z,89.04
2023-02-16T06:59:40.788Z,88.69
2023-02-16T07:04:34.092Z,88.49
2023-02-16T07:09:27.937Z,88.26
2023-02-16T07:14:23.295Z,87.87
2023-02-16T07:19:16.757Z,87.32
2023-02-16T07:24:10.226Z,86.84
2023-02-16T07:29:03.647Z,86.70
2023-02-16T07:33:58.622Z,86.42
2023-02-16T07:38:52.006Z,86.31
2023-02-16T07:43:45.637Z,86.21
2023-02-16T07:48:38.923Z,85.84
2023-02-16T07:53:33.843Z,85.50
2023-02-16T07:58:29.311Z,85.44
2023-02-16T08:03:23.658Z,85.45
2023-02-16T08:08:19.078Z,84.78
2023-02-16T08:13:15.108Z,84.10
2023-02-16T08:18:08.934Z,83.12
2023-02-16T08:23:02.533Z,82.87
2023-02-16T08:27:55.805Z,81.94
2023-02-16T08:32:51.944Z,80.90
2023-02-16T08:37:46.102Z,79.39
2023-02-16T08:42:42.094Z,78.62
2023-02-16T08:47:41.926Z,77.36
2023-02-16T08:52:41.354Z,76.41
2023-02-16T08:57:49.268Z,75.50
2023-02-16T09:02:58.767Z,74.89
2023-02-16T09:08:04.886Z,74.10
2023-02-16T09:13:15.167Z,73.92
2023-02-16T09:18:19.892Z,71.32
2023-02-16T09:23:32.000Z,69.05
2023-02-16T09:29:19.794Z,64.10
2023-02-16T09:34:19.077Z,59.54
2023-02-16T09:39:14.068Z,56.11
2023-02-16T09:44:18.000Z,53.99
2023-02-16T09:49:25.227Z,53.26
2023-02-16T09:54:30.960Z,52.69
2023-02-16T09:59:39.377Z,52.46
2023-02-16T10:04:44.238Z,53.34
2023-02-16T10:09:41.872Z,53.24
2023-02-16T10:14:41.425Z,53.09
2023-02-16T10:19:40.595Z,52.76
2023-02-16T10:24:45.470Z,53.13
2023-02-16T10:29:38.720Z,52.17
2023-02-16T10:34:46.853Z,52.85
2023-02-16T10:39:47.837Z,53.52
2023-02-16T10:44:47.268Z,52.96
2023-02-16T10:49:50.711Z,52.28
2023-02-16T10:54:45.412Z,52.23
2023-02-16T10:59:43.722Z,50.04
2023-02-16T11:04:39.971Z,49.95
2023-02-16T11:09:33.718Z,48.74
2023-02-16T11:14:31.332Z,48.51
2023-02-16T11:19:26.932Z,47.18
2023-02-16T11:24:28.044Z,46.46
2023-02-16T11:29:21.829Z,46.74
2023-02-16T11:34:33.012Z,45.78
2023-02-16T11:39:30.943Z,43.84
2023-02-16T11:44:28.803Z,44.68
2023-02-16T11:49:31.740Z,44.89
2023-02-16T11:54:25.152Z,45.65
2023-02-16T11:59:20.793Z,47.38
2023-02-16T12:04:26.612Z,46.97
2023-02-16T12:09:31.918Z,48.91
2023-02-16T12:14:38.725Z,49.57
2023-02-16T12:19:42.014Z,49.20
2023-02-16T12:25:01.841Z,49.39
2023-02-16T12:30:34.145Z,51.48
2023-02-16T12:35:49.908Z,49.01
2023-02-16T12:41:05.043Z,49.70
2023-02-16T12:46:09.005Z,50.32
2023-02-16T12:51:08.842Z,50.31
2023-02-16T12:56:35.846Z,51.12
2023-02-16T13:01:52.614Z,50.91
2023-02-16T13:07:01.186Z,50.16
2023-02-16T13:12:06.883Z,50.28
2023-02-16T13:17:14.437Z,50.28
2023-02-16T13:22:40.333Z,50.26
2023-02-16T13:27:51.488Z,49.84
2023-02-16T13:33:05.589Z,49.71
2023-02-16T13:39:34.047Z,49.96
2023-02-16T13:44:08.834Z,50.43
2023-02-16T13:49:04.796Z,51.09
2023-02-16T13:54:00.870Z,51.20
2023-02-16T13:58:59.157Z,51.22
2023-02-16T14:03:56.075Z,51.54
2023-02-16T14:09:31.210Z,51.26
2023-02-16T14:14:40.048Z,50.62
2023-02-16T14:19:41.038Z,50.62
2023-02-16T14:24:39.917Z,50.58
2023-02-16T14:29:39.351Z,50.85
2023-02-16T14:34:41.417Z,51.23
2023-02-16T14:39:43.822Z,51.30
2023-02-16T14:45:03.750Z,51.35
2023-02-16T14:50:28.922Z,52.08
2023-02-16T14:55:55.493Z,52.25
2023-02-16T15:00:57.073Z,52.74
2023-02-16T15:06:02.345Z,52.74
2023-02-16T15:11:06.569Z,53.31
2023-02-16T15:16:15.304Z,53.81
2023-02-16T15:21:22.487Z,53.83
2023-02-16T15:26:22.555Z,54.49
2023-02-16T15:31:26.255Z,54.82
2023-02-16T15:36:36.956Z,55.34
2023-02-16T15:41:31.504Z,56.41
2023-02-16T15:46:33.250Z,57.40
2023-02-16T15:51:33.417Z,58.14
2023-02-16T15:56:39.840Z,59.04
2023-02-16T16:01:37.664Z,59.83
2023-02-16T16:06:37.216Z,60.23
2023-02-16T16:11:37.068Z,60.84
2023-02-16T16:16:36.490Z,61.75
2023-02-16T16:21:34.450Z,62.46
2023-02-16T16:26:29.546Z,63.40
2023-02-16T16:31:43.801Z,64.12
2023-02-16T16:36:41.244Z,64.71
2023-02-16T16:41:38.632Z,65.13
2023-02-16T16:46:33.691Z,65.87
2023-02-16T16:51:42.732Z,66.41
2023-02-16T16:56:38.492Z,66.72
2023-02-16T17:01:37.912Z,67.36
2023-02-16T17:06:32.692Z,67.78
2023-02-16T17:11:31.715Z,68.24
2023-02-16T17:16:28.825Z,68.61
2023-02-16T17:21:24.775Z,69.30
2023-02-16T17:26:21.399Z,69.99
2023-02-16T17:31:16.675Z,70.54
2023-02-16T17:36:15.441Z,70.55
2023-02-16T17:41:09.454Z,70.93
2023-02-16T17:46:06.721Z,71.49
2023-02-16T17:51:01.941Z,72.34
2023-02-16T17:55:58.654Z,72.81
2023-02-16T18:00:52.334Z,73.39
2023-02-16T18:05:46.035Z,73.89
2023-02-16T18:10:44.860Z,74.29
2023-02-16T18:15:38.676Z,75.06
2023-02-16T18:20:32.004Z,75.35
2023-02-16T18:25:25.407Z,75.54
2023-02-16T18:30:20.391Z,75.81
2023-02-16T18:35:14.438Z,76.24
2023-02-16T18:40:11.071Z,76.77
2023-02-16T18:45:04.951Z,76.85
2023-02-16T18:49:59.646Z,77.22
2023-02-16T18:54:53.166Z,77.52
2023-02-16T18:59:46.455Z,77.78
2023-02-16T19:04:39.789Z,78.32
2023-02-16T19:09:34.679Z,78.41
2023-02-16T19:14:28.052Z,78.40
2023-02-16T19:19:21.487Z,79.05
2023-02-16T19:24:15.144Z,79.25
2023-02-16T19:29:09.829Z,79.37
2023-02-16T19:34:03.947Z,79.48
2023-02-16T19:38:57.554Z,79.66
2023-02-16T19:43:51.282Z,79.31
2023-02-16T19:48:46.510Z,79.44
2023-02-16T19:53:43.379Z,79.77
2023-02-16T19:58:37.057Z,79.67
2023-02-16T20:03:32.322Z,79.79
2023-02-16T20:08:43.406Z,80.00
2023-02-16T20:13:37.350Z,80.24
2023-02-16T20:18:31.485Z,80.43
2023-02-16T20:23:24.812Z,80.89
2023-02-16T20:28:22.335Z,81.05
2023-02-16T20:33:18.313Z,81.04
2023-02-16T20:38:11.796Z,81.38
2023-02-16T20:43:05.530Z,82.24
2023-02-16T20:48:00.373Z,82.22
2023-02-16T20:52:54.692Z,82.71
2023-02-16T20:57:47.931Z,83.23
2023-02-16T21:02:41.566Z,82.56
2023-02-16T21:07:36.364Z,82.30
2023-02-16T21:12:30.006Z,81.10
2023-02-16T21:17:23.640Z,81.10
2023-02-16T21:22:16.968Z,81.08
2023-02-16T21:27:15.010Z,80.90
2023-02-16T21:32:08.844Z,81.21
2023-02-16T21:37:02.078Z,81.73
2023-02-16T21:41:55.443Z,81.46
2023-02-16T21:46:50.089Z,81.89
2023-02-16T21:51:45.422Z,81.78
2023-02-16T21:56:41.009Z,81.90
2023-02-16T22:01:36.214Z,82.73
2023-02-16T22:06:33.601Z,82.65
2023-02-16T22:11:29.468Z,83.41
2023-02-16T22:16:23.252Z,83.79
2023-02-16T22:21:17.452Z,83.70
2023-02-16T22:26:22.530Z,84.06
2023-02-16T22:31:17.709Z,84.16
2023-02-16T22:36:15.160Z,84.16
2023-02-16T22:41:09.339Z,84.56
2023-02-16T22:46:08.842Z,85.08
2023-02-16T22:51:03.400Z,84.75
2023-02-16T22:55:59.301Z,84.94
2023-02-16T23:00:53.177Z,84.97
2023-02-16T23:05:50.361Z,84.74
2023-02-16T23:11:00.045Z,84.56
2023-02-16T23:15:53.472Z,85.04
2023-02-16T23:20:48.141Z,85.50
2023-02-16T23:25:46.019Z,85.18
2023-02-16T23:30:43.056Z,85.18
2023-02-16T23:35:37.974Z,85.01
2023-02-16T23:40:32.784Z,85.13
2023-02-16T23:45:26.015Z,85.54
2023-02-16T23:50:21.476Z,85.79
2023-02-16T23:55:15.253Z,85.37
